sensor_id;sensor_type;location;lat;lon;timestamp;P1;durP1;ratioP1;P2;durP2;ratioP2
65567;SDS011;52211;50.154;8.682;2022-09-20T00:01:39;3.47;;;2.47;;
65567;SDS011;52211;50.154;8.682;2022-09-20T00:04:06;2.80;;;2.57;;
65567;SDS011;52211;50.154;8.682;2022-09-20T00:06:38;2.93;;;2.60;;
65567;SDS011;52211;50.154;8.682;2022-09-20T00:09:04;2.77;;;2.47;;
65567;SDS011;52211;50.154;8.682;2022-09-20T00:11:33;2.97;;;2.50;;
65567;SDS011;52211;50.154;8.682;2022-09-20T00:14:01;3.37;;;2.47;;
65567;SDS011;52211;50.154;8.682;2022-09-20T00:16:36;2.20;;;2.00;;
65567;SDS011;52211;50.154;8.682;2022-09-20T00:19:06;2.77;;;2.47;;
65567;SDS011;52211;50.154;8.682;2022-09-20T00:21:43;3.03;;;2.83;;
65567;SDS011;52211;50.154;8.682;2022-09-20T00:24:15;2.80;;;2.60;;
65567;SDS011;52211;50.154;8.682;2022-09-20T00:26:45;5.07;;;3.00;;
65567;SDS011;52211;50.154;8.682;2022-09-20T00:29:14;2.63;;;2.43;;
65567;SDS011;52211;50.154;8.682;2022-09-20T00:31:43;4.70;;;2.70;;
65567;SDS011;52211;50.154;8.682;2022-09-20T00:34:12;3.00;;;2.40;;
65567;SDS011;52211;50.154;8.682;2022-09-20T00:36:58;2.83;;;2.40;;
65567;SDS011;52211;50.154;8.682;2022-09-20T00:39:27;3.97;;;2.60;;
65567;SDS011;52211;50.154;8.682;2022-09-20T00:41:56;6.07;;;3.13;;
65567;SDS011;52211;50.154;8.682;2022-09-20T00:47:37;4.93;;;2.90;;
65567;SDS011;52211;50.154;8.682;2022-09-20T00:53:13;2.70;;;2.50;;
65567;SDS011;52211;50.154;8.682;2022-09-20T00:55:52;2.77;;;2.57;;
65567;SDS011;52211;50.154;8.682;2022-09-20T00:58:25;2.77;;;2.57;;
65567;SDS011;52211;50.154;8.682;2022-09-20T01:01:00;2.63;;;2.43;;
65567;SDS011;52211;50.154;8.682;2022-09-20T01:03:28;3.10;;;2.80;;
65567;SDS011;52211;50.154;8.682;2022-09-20T01:06:02;2.93;;;2.67;;
65567;SDS011;52211;50.154;8.682;2022-09-20T01:08:41;3.57;;;2.70;;
65567;SDS011;52211;50.154;8.682;2022-09-20T01:11:18;3.50;;;3.10;;
65567;SDS011;52211;50.154;8.682;2022-09-20T01:13:50;2.87;;;2.67;;
65567;SDS011;52211;50.154;8.682;2022-09-20T01:16:17;2.80;;;2.60;;
65567;SDS011;52211;50.154;8.682;2022-09-20T01:18:54;2.90;;;2.70;;
65567;SDS011;52211;50.154;8.682;2022-09-20T01:21:25;3.30;;;2.83;;
65567;SDS011;52211;50.154;8.682;2022-09-20T01:24:03;3.50;;;3.00;;
65567;SDS011;52211;50.154;8.682;2022-09-20T01:29:58;3.13;;;2.83;;
65567;SDS011;52211;50.154;8.682;2022-09-20T01:32:38;3.10;;;2.60;;
65567;SDS011;52211;50.154;8.682;2022-09-20T01:35:37;4.20;;;2.90;;
65567;SDS011;52211;50.154;8.682;2022-09-20T01:46:34;2.90;;;2.80;;
65567;SDS011;52211;50.154;8.682;2022-09-20T02:04:20;4.13;;;2.90;;
65567;SDS011;52211;50.154;8.682;2022-09-20T02:43:03;5.30;;;3.23;;
65567;SDS011;52211;50.154;8.682;2022-09-20T02:45:55;3.93;;;3.13;;
65567;SDS011;52211;50.154;8.682;2022-09-20T03:00:49;3.10;;;2.90;;
65567;SDS011;52211;50.154;8.682;2022-09-20T03:06:41;3.37;;;3.03;;
65567;SDS011;52211;50.154;8.682;2022-09-20T03:18:17;4.47;;;3.27;;
65567;SDS011;52211;50.154;8.682;2022-09-20T03:21:34;3.70;;;2.90;;
65567;SDS011;52211;50.154;8.682;2022-09-20T03:31:05;5.57;;;3.40;;
65567;SDS011;52211;50.154;8.682;2022-09-20T03:39:22;3.90;;;3.60;;
65567;SDS011;52211;50.154;8.682;2022-09-20T03:56:35;4.30;;;3.23;;
65567;SDS011;52211;50.154;8.682;2022-09-20T03:59:35;3.67;;;2.83;;
65567;SDS011;52211;50.154;8.682;2022-09-20T04:05:14;3.60;;;3.30;;
65567;SDS011;52211;50.154;8.682;2022-09-20T04:11:42;5.93;;;3.63;;
65567;SDS011;52211;50.154;8.682;2022-09-20T04:26:17;3.27;;;3.03;;
65567;SDS011;52211;50.154;8.682;2022-09-20T04:28:59;4.30;;;3.20;;
65567;SDS011;52211;50.154;8.682;2022-09-20T04:31:32;4.10;;;3.27;;
65567;SDS011;52211;50.154;8.682;2022-09-20T04:34:30;3.50;;;3.20;;
65567;SDS011;52211;50.154;8.682;2022-09-20T04:37:30;4.97;;;3.57;;
65567;SDS011;52211;50.154;8.682;2022-09-20T05:00:00;5.47;;;3.90;;
65567;SDS011;52211;50.154;8.682;2022-09-20T05:38:14;9.43;;;4.73;;
65567;SDS011;52211;50.154;8.682;2022-09-20T05:47:33;5.87;;;5.27;;
65567;SDS011;52211;50.154;8.682;2022-09-20T05:50:27;5.90;;;5.30;;
65567;SDS011;52211;50.154;8.682;2022-09-20T06:01:45;5.50;;;5.00;;
65567;SDS011;52211;50.154;8.682;2022-09-20T06:13:22;8.10;;;5.67;;
65567;SDS011;52211;50.154;8.682;2022-09-20T06:16:03;5.33;;;4.93;;
65567;SDS011;52211;50.154;8.682;2022-09-20T06:22:11;8.00;;;5.00;;
65567;SDS011;52211;50.154;8.682;2022-09-20T06:30:21;8.30;;;6.20;;
65567;SDS011;52211;50.154;8.682;2022-09-20T06:32:59;7.13;;;5.43;;
65567;SDS011;52211;50.154;8.682;2022-09-20T06:35:39;5.90;;;5.40;;
65567;SDS011;52211;50.154;8.682;2022-09-20T06:41:21;6.67;;;5.93;;
65567;SDS011;52211;50.154;8.682;2022-09-20T06:43:56;6.77;;;5.93;;
65567;SDS011;52211;50.154;8.682;2022-09-20T06:46:30;6.03;;;5.47;;
65567;SDS011;52211;50.154;8.682;2022-09-20T06:49:03;7.90;;;6.67;;
65567;SDS011;52211;50.154;8.682;2022-09-20T06:51:35;7.70;;;6.73;;
65567;SDS011;52211;50.154;8.682;2022-09-20T06:54:04;6.17;;;5.63;;
65567;SDS011;52211;50.154;8.682;2022-09-20T06:56:37;8.50;;;6.43;;
65567;SDS011;52211;50.154;8.682;2022-09-20T06:59:04;7.00;;;6.47;;
65567;SDS011;52211;50.154;8.682;2022-09-20T07:01:36;6.53;;;5.93;;
65567;SDS011;52211;50.154;8.682;2022-09-20T07:04:04;6.30;;;5.70;;
65567;SDS011;52211;50.154;8.682;2022-09-20T07:06:34;6.37;;;5.77;;
65567;SDS011;52211;50.154;8.682;2022-09-20T07:09:01;8.97;;;5.97;;
65567;SDS011;52211;50.154;8.682;2022-09-20T07:11:28;6.50;;;5.90;;
65567;SDS011;52211;50.154;8.682;2022-09-20T07:14:00;6.90;;;6.30;;
65567;SDS011;52211;50.154;8.682;2022-09-20T07:16:33;14.67;;;6.00;;
65567;SDS011;52211;50.154;8.682;2022-09-20T07:19:01;6.20;;;5.40;;
65567;SDS011;52211;50.154;8.682;2022-09-20T07:21:33;9.87;;;5.60;;
65567;SDS011;52211;50.154;8.682;2022-09-20T07:24:02;6.40;;;5.63;;
65567;SDS011;52211;50.154;8.682;2022-09-20T07:26:34;5.83;;;5.30;;
65567;SDS011;52211;50.154;8.682;2022-09-20T07:29:04;5.97;;;5.57;;
65567;SDS011;52211;50.154;8.682;2022-09-20T07:31:34;6.23;;;5.63;;
65567;SDS011;52211;50.154;8.682;2022-09-20T07:34:00;6.67;;;5.87;;
65567;SDS011;52211;50.154;8.682;2022-09-20T07:36:27;6.07;;;5.67;;
65567;SDS011;52211;50.154;8.682;2022-09-20T07:38:54;5.90;;;5.33;;
65567;SDS011;52211;50.154;8.682;2022-09-20T07:41:21;5.87;;;5.37;;
65567;SDS011;52211;50.154;8.682;2022-09-20T07:43:51;6.27;;;5.70;;
65567;SDS011;52211;50.154;8.682;2022-09-20T07:46:38;5.80;;;5.40;;
65567;SDS011;52211;50.154;8.682;2022-09-20T07:49:05;7.40;;;5.03;;
65567;SDS011;52211;50.154;8.682;2022-09-20T07:51:36;5.50;;;5.07;;
65567;SDS011;52211;50.154;8.682;2022-09-20T07:54:06;8.90;;;5.17;;
65567;SDS011;52211;50.154;8.682;2022-09-20T07:56:35;6.60;;;5.13;;
65567;SDS011;52211;50.154;8.682;2022-09-20T07:59:02;6.00;;;5.10;;
65567;SDS011;52211;50.154;8.682;2022-09-20T08:01:34;5.40;;;4.90;;
65567;SDS011;52211;50.154;8.682;2022-09-20T08:04:05;9.77;;;5.07;;
65567;SDS011;52211;50.154;8.682;2022-09-20T08:06:37;6.40;;;4.90;;
65567;SDS011;52211;50.154;8.682;2022-09-20T08:09:07;4.90;;;4.60;;
65567;SDS011;52211;50.154;8.682;2022-09-20T08:11:39;5.13;;;4.67;;
65567;SDS011;52211;50.154;8.682;2022-09-20T08:14:12;5.50;;;4.70;;
65567;SDS011;52211;50.154;8.682;2022-09-20T08:16:46;4.57;;;4.27;;
65567;SDS011;52211;50.154;8.682;2022-09-20T08:19:18;5.07;;;4.77;;
65567;SDS011;52211;50.154;8.682;2022-09-20T08:21:48;4.47;;;4.07;;
65567;SDS011;52211;50.154;8.682;2022-09-20T08:24:21;4.93;;;4.53;;
65567;SDS011;52211;50.154;8.682;2022-09-20T08:26:51;5.13;;;4.77;;
65567;SDS011;52211;50.154;8.682;2022-09-20T08:29:18;4.90;;;4.40;;
65567;SDS011;52211;50.154;8.682;2022-09-20T08:31:45;5.03;;;4.60;;
65567;SDS011;52211;50.154;8.682;2022-09-20T08:34:15;4.50;;;4.20;;
65567;SDS011;52211;50.154;8.682;2022-09-20T08:36:44;4.60;;;4.23;;
65567;SDS011;52211;50.154;8.682;2022-09-20T08:39:12;4.43;;;4.03;;
65567;SDS011;52211;50.154;8.682;2022-09-20T08:42:09;5.17;;;4.77;;
65567;SDS011;52211;50.154;8.682;2022-09-20T08:45:02;4.63;;;3.97;;
65567;SDS011;52211;50.154;8.682;2022-09-20T08:47:59;5.00;;;4.60;;
65567;SDS011;52211;50.154;8.682;2022-09-20T08:50:33;4.97;;;4.63;;
65567;SDS011;52211;50.154;8.682;2022-09-20T08:53:02;5.70;;;5.20;;
65567;SDS011;52211;50.154;8.682;2022-09-20T08:55:32;5.70;;;4.87;;
65567;SDS011;52211;50.154;8.682;2022-09-20T08:58:07;4.93;;;4.53;;
65567;SDS011;52211;50.154;8.682;2022-09-20T09:00:37;5.40;;;4.90;;
65567;SDS011;52211;50.154;8.682;2022-09-20T09:03:10;4.83;;;4.50;;
65567;SDS011;52211;50.154;8.682;2022-09-20T09:05:51;5.10;;;4.77;;
65567;SDS011;52211;50.154;8.682;2022-09-20T09:08:24;6.03;;;4.47;;
65567;SDS011;52211;50.154;8.682;2022-09-20T09:11:11;4.10;;;3.80;;
65567;SDS011;52211;50.154;8.682;2022-09-20T09:16:51;3.80;;;3.50;;
65567;SDS011;52211;50.154;8.682;2022-09-20T09:19:24;5.50;;;4.27;;
65567;SDS011;52211;50.154;8.682;2022-09-20T09:21:59;4.20;;;3.80;;
65567;SDS011;52211;50.154;8.682;2022-09-20T09:24:33;3.87;;;3.67;;
65567;SDS011;52211;50.154;8.682;2022-09-20T09:27:07;3.70;;;3.50;;
65567;SDS011;52211;50.154;8.682;2022-09-20T09:29:54;3.63;;;3.33;;
65567;SDS011;52211;50.154;8.682;2022-09-20T09:32:25;3.53;;;3.20;;
65567;SDS011;52211;50.154;8.682;2022-09-20T09:35:21;5.27;;;3.43;;
65567;SDS011;52211;50.154;8.682;2022-09-20T09:37:58;3.47;;;3.37;;
65567;SDS011;52211;50.154;8.682;2022-09-20T09:40:28;4.30;;;4.00;;
65567;SDS011;52211;50.154;8.682;2022-09-20T09:42:58;3.87;;;3.67;;
65567;SDS011;52211;50.154;8.682;2022-09-20T09:45:31;4.07;;;3.87;;
65567;SDS011;52211;50.154;8.682;2022-09-20T09:50:50;4.83;;;3.70;;
65567;SDS011;52211;50.154;8.682;2022-09-20T09:53:37;4.90;;;3.97;;
65567;SDS011;52211;50.154;8.682;2022-09-20T09:56:11;4.13;;;3.70;;
65567;SDS011;52211;50.154;8.682;2022-09-20T10:07:38;3.47;;;3.27;;
65567;SDS011;52211;50.154;8.682;2022-09-20T10:10:42;4.27;;;4.07;;
65567;SDS011;52211;50.154;8.682;2022-09-20T10:34:56;3.40;;;3.20;;
65567;SDS011;52211;50.154;8.682;2022-09-20T10:44:11;4.20;;;3.80;;
65567;SDS011;52211;50.154;8.682;2022-09-20T10:52:22;3.63;;;3.33;;
65567;SDS011;52211;50.154;8.682;2022-09-20T10:55:01;3.40;;;3.20;;
65567;SDS011;52211;50.154;8.682;2022-09-20T10:58:15;3.40;;;3.20;;
65567;SDS011;52211;50.154;8.682;2022-09-20T11:09:50;3.10;;;2.90;;
65567;SDS011;52211;50.154;8.682;2022-09-20T11:12:37;3.87;;;3.27;;
65567;SDS011;52211;50.154;8.682;2022-09-20T11:15:18;3.10;;;2.90;;
65567;SDS011;52211;50.154;8.682;2022-09-20T11:17:57;4.33;;;3.33;;
65567;SDS011;52211;50.154;8.682;2022-09-20T11:20:59;3.10;;;2.90;;
65567;SDS011;52211;50.154;8.682;2022-09-20T11:24:24;3.00;;;2.80;;
65567;SDS011;52211;50.154;8.682;2022-09-20T11:27:09;3.20;;;3.00;;
65567;SDS011;52211;50.154;8.682;2022-09-20T11:32:23;3.00;;;2.80;;
65567;SDS011;52211;50.154;8.682;2022-09-20T11:37:45;2.63;;;2.53;;
65567;SDS011;52211;50.154;8.682;2022-09-20T11:43:37;2.73;;;2.60;;
65567;SDS011;52211;50.154;8.682;2022-09-20T11:46:10;3.00;;;2.80;;
65567;SDS011;52211;50.154;8.682;2022-09-20T11:49:00;2.90;;;2.70;;
65567;SDS011;52211;50.154;8.682;2022-09-20T11:57:41;2.50;;;2.40;;
65567;SDS011;52211;50.154;8.682;2022-09-20T12:00:08;2.77;;;2.67;;
65567;SDS011;52211;50.154;8.682;2022-09-20T12:02:48;2.70;;;2.60;;
65567;SDS011;52211;50.154;8.682;2022-09-20T12:05:29;3.53;;;3.33;;
65567;SDS011;52211;50.154;8.682;2022-09-20T12:08:19;3.47;;;3.27;;
65567;SDS011;52211;50.154;8.682;2022-09-20T12:10:54;3.50;;;3.10;;
65567;SDS011;52211;50.154;8.682;2022-09-20T12:13:30;4.00;;;3.60;;
65567;SDS011;52211;50.154;8.682;2022-09-20T12:16:05;4.03;;;3.10;;
65567;SDS011;52211;50.154;8.682;2022-09-20T12:21:19;3.00;;;2.90;;
65567;SDS011;52211;50.154;8.682;2022-09-20T12:28:54;2.47;;;2.37;;
65567;SDS011;52211;50.154;8.682;2022-09-20T12:58:30;3.60;;;3.40;;
65567;SDS011;52211;50.154;8.682;2022-09-20T13:03:41;3.13;;;3.03;;
65567;SDS011;52211;50.154;8.682;2022-09-20T13:11:16;3.60;;;3.30;;
65567;SDS011;52211;50.154;8.682;2022-09-20T13:14:19;3.27;;;3.00;;
65567;SDS011;52211;50.154;8.682;2022-09-20T13:16:49;3.37;;;3.23;;
65567;SDS011;52211;50.154;8.682;2022-09-20T13:19:43;2.97;;;2.80;;
65567;SDS011;52211;50.154;8.682;2022-09-20T13:22:19;3.50;;;3.30;;
65567;SDS011;52211;50.154;8.682;2022-09-20T13:24:52;3.17;;;3.07;;
65567;SDS011;52211;50.154;8.682;2022-09-20T13:27:34;3.63;;;3.43;;
65567;SDS011;52211;50.154;8.682;2022-09-20T13:32:42;3.90;;;3.60;;
65567;SDS011;52211;50.154;8.682;2022-09-20T13:37:51;3.30;;;3.20;;
65567;SDS011;52211;50.154;8.682;2022-09-20T13:40:36;3.60;;;3.37;;
65567;SDS011;52211;50.154;8.682;2022-09-20T13:45:59;3.20;;;3.00;;
65567;SDS011;52211;50.154;8.682;2022-09-20T13:48:34;3.70;;;3.50;;
65567;SDS011;52211;50.154;8.682;2022-09-20T13:51:13;3.23;;;3.13;;
65567;SDS011;52211;50.154;8.682;2022-09-20T13:53:54;3.23;;;3.03;;
65567;SDS011;52211;50.154;8.682;2022-09-20T13:56:59;3.70;;;3.50;;
65567;SDS011;52211;50.154;8.682;2022-09-20T13:59:34;3.57;;;3.37;;
65567;SDS011;52211;50.154;8.682;2022-09-20T14:02:20;3.40;;;3.20;;
65567;SDS011;52211;50.154;8.682;2022-09-20T14:04:53;3.83;;;3.10;;
65567;SDS011;52211;50.154;8.682;2022-09-20T14:07:22;3.57;;;3.37;;
65567;SDS011;52211;50.154;8.682;2022-09-20T14:09:53;3.00;;;2.90;;
65567;SDS011;52211;50.154;8.682;2022-09-20T14:12:24;3.10;;;3.00;;
65567;SDS011;52211;50.154;8.682;2022-09-20T14:14:52;3.13;;;3.03;;
65567;SDS011;52211;50.154;8.682;2022-09-20T14:17:22;3.87;;;3.40;;
65567;SDS011;52211;50.154;8.682;2022-09-20T14:19:51;3.50;;;3.20;;
65567;SDS011;52211;50.154;8.682;2022-09-20T14:22:24;3.37;;;3.17;;
65567;SDS011;52211;50.154;8.682;2022-09-20T14:25:16;3.40;;;3.30;;
65567;SDS011;52211;50.154;8.682;2022-09-20T14:30:46;3.37;;;3.20;;
65567;SDS011;52211;50.154;8.682;2022-09-20T14:33:17;3.33;;;3.10;;
65567;SDS011;52211;50.154;8.682;2022-09-20T14:35:49;3.80;;;3.60;;
65567;SDS011;52211;50.154;8.682;2022-09-20T14:38:21;3.17;;;3.00;;
65567;SDS011;52211;50.154;8.682;2022-09-20T14:40:52;3.60;;;3.37;;
65567;SDS011;52211;50.154;8.682;2022-09-20T14:43:29;3.13;;;3.03;;
65567;SDS011;52211;50.154;8.682;2022-09-20T14:46:04;3.20;;;2.90;;
65567;SDS011;52211;50.154;8.682;2022-09-20T14:52:20;3.23;;;3.07;;
65567;SDS011;52211;50.154;8.682;2022-09-20T14:55:22;3.40;;;3.20;;
65567;SDS011;52211;50.154;8.682;2022-09-20T14:57:57;2.90;;;2.80;;
65567;SDS011;52211;50.154;8.682;2022-09-20T15:00:28;3.20;;;3.10;;
65567;SDS011;52211;50.154;8.682;2022-09-20T15:03:12;2.77;;;2.67;;
65567;SDS011;52211;50.154;8.682;2022-09-20T15:05:46;3.30;;;3.00;;
65567;SDS011;52211;50.154;8.682;2022-09-20T15:08:15;3.10;;;2.90;;
65567;SDS011;52211;50.154;8.682;2022-09-20T15:10:45;3.10;;;3.00;;
65567;SDS011;52211;50.154;8.682;2022-09-20T15:13:12;3.00;;;2.90;;
65567;SDS011;52211;50.154;8.682;2022-09-20T15:15:40;3.27;;;2.97;;
65567;SDS011;52211;50.154;8.682;2022-09-20T15:18:17;3.03;;;2.80;;
65567;SDS011;52211;50.154;8.682;2022-09-20T15:20:50;3.23;;;3.13;;
65567;SDS011;52211;50.154;8.682;2022-09-20T15:23:19;2.90;;;2.80;;
65567;SDS011;52211;50.154;8.682;2022-09-20T15:25:50;3.10;;;3.00;;
65567;SDS011;52211;50.154;8.682;2022-09-20T15:28:19;3.60;;;3.30;;
65567;SDS011;52211;50.154;8.682;2022-09-20T15:30:49;3.27;;;3.07;;
65567;SDS011;52211;50.154;8.682;2022-09-20T15:33:17;3.27;;;3.17;;
65567;SDS011;52211;50.154;8.682;2022-09-20T15:35:48;3.30;;;2.80;;
65567;SDS011;52211;50.154;8.682;2022-09-20T15:38:18;3.13;;;2.93;;
65567;SDS011;52211;50.154;8.682;2022-09-20T15:40:48;3.10;;;3.00;;
65567;SDS011;52211;50.154;8.682;2022-09-20T15:43:19;3.37;;;3.17;;
65567;SDS011;52211;50.154;8.682;2022-09-20T15:45:53;2.80;;;2.70;;
65567;SDS011;52211;50.154;8.682;2022-09-20T15:48:23;3.20;;;3.00;;
65567;SDS011;52211;50.154;8.682;2022-09-20T15:51:05;3.10;;;2.90;;
65567;SDS011;52211;50.154;8.682;2022-09-20T15:53:43;3.10;;;2.90;;
65567;SDS011;52211;50.154;8.682;2022-09-20T15:56:20;2.70;;;2.60;;
65567;SDS011;52211;50.154;8.682;2022-09-20T15:58:49;3.27;;;3.03;;
65567;SDS011;52211;50.154;8.682;2022-09-20T16:01:28;2.67;;;2.57;;
65567;SDS011;52211;50.154;8.682;2022-09-20T16:04:04;2.60;;;2.50;;
65567;SDS011;52211;50.154;8.682;2022-09-20T16:06:35;2.93;;;2.77;;
65567;SDS011;52211;50.154;8.682;2022-09-20T16:09:09;2.70;;;2.60;;
65567;SDS011;52211;50.154;8.682;2022-09-20T16:11:37;2.73;;;2.60;;
65567;SDS011;52211;50.154;8.682;2022-09-20T16:14:07;2.63;;;2.53;;
65567;SDS011;52211;50.154;8.682;2022-09-20T16:16:38;3.07;;;2.87;;
65567;SDS011;52211;50.154;8.682;2022-09-20T16:19:08;3.07;;;2.93;;
65567;SDS011;52211;50.154;8.682;2022-09-20T16:21:51;2.80;;;2.70;;
65567;SDS011;52211;50.154;8.682;2022-09-20T16:24:25;2.90;;;2.80;;
65567;SDS011;52211;50.154;8.682;2022-09-20T16:27:01;2.70;;;2.60;;
65567;SDS011;52211;50.154;8.682;2022-09-20T16:29:31;2.80;;;2.70;;
65567;SDS011;52211;50.154;8.682;2022-09-20T16:31:59;2.60;;;2.50;;
65567;SDS011;52211;50.154;8.682;2022-09-20T16:34:32;3.00;;;2.90;;
65567;SDS011;52211;50.154;8.682;2022-09-20T16:37:03;3.00;;;2.90;;
65567;SDS011;52211;50.154;8.682;2022-09-20T16:39:37;3.03;;;2.83;;
65567;SDS011;52211;50.154;8.682;2022-09-20T16:42:05;3.00;;;2.80;;
65567;SDS011;52211;50.154;8.682;2022-09-20T16:44:39;3.00;;;2.80;;
65567;SDS011;52211;50.154;8.682;2022-09-20T16:47:11;2.70;;;2.60;;
65567;SDS011;52211;50.154;8.682;2022-09-20T16:49:49;2.90;;;2.60;;
65567;SDS011;52211;50.154;8.682;2022-09-20T16:52:18;3.13;;;2.77;;
65567;SDS011;52211;50.154;8.682;2022-09-20T16:54:50;3.20;;;3.00;;
65567;SDS011;52211;50.154;8.682;2022-09-20T16:57:19;2.83;;;2.73;;
65567;SDS011;52211;50.154;8.682;2022-09-20T16:59:48;2.80;;;2.60;;
65567;SDS011;52211;50.154;8.682;2022-09-20T17:02:16;2.80;;;2.70;;
65567;SDS011;52211;50.154;8.682;2022-09-20T17:04:46;2.97;;;2.70;;
65567;SDS011;52211;50.154;8.682;2022-09-20T17:07:13;2.60;;;2.50;;
65567;SDS011;52211;50.154;8.682;2022-09-20T17:09:42;3.13;;;2.93;;
65567;SDS011;52211;50.154;8.682;2022-09-20T17:12:08;3.20;;;3.00;;
65567;SDS011;52211;50.154;8.682;2022-09-20T17:14:35;2.57;;;2.40;;
65567;SDS011;52211;50.154;8.682;2022-09-20T17:17:04;3.00;;;2.90;;
65567;SDS011;52211;50.154;8.682;2022-09-20T17:19:34;2.60;;;2.50;;
65567;SDS011;52211;50.154;8.682;2022-09-20T17:22:01;2.80;;;2.60;;
65567;SDS011;52211;50.154;8.682;2022-09-20T17:24:28;2.60;;;2.40;;
65567;SDS011;52211;50.154;8.682;2022-09-20T17:26:58;2.73;;;2.63;;
65567;SDS011;52211;50.154;8.682;2022-09-20T17:29:30;2.50;;;2.40;;
65567;SDS011;52211;50.154;8.682;2022-09-20T17:31:59;2.50;;;2.40;;
65567;SDS011;52211;50.154;8.682;2022-09-20T17:34:31;2.43;;;2.33;;
65567;SDS011;52211;50.154;8.682;2022-09-20T17:37:00;3.40;;;3.13;;
65567;SDS011;52211;50.154;8.682;2022-09-20T17:39:29;2.90;;;2.70;;
65567;SDS011;52211;50.154;8.682;2022-09-20T17:41:59;2.70;;;2.50;;
65567;SDS011;52211;50.154;8.682;2022-09-20T17:44:28;2.60;;;2.40;;
65567;SDS011;52211;50.154;8.682;2022-09-20T17:46:55;2.97;;;2.77;;
65567;SDS011;52211;50.154;8.682;2022-09-20T17:49:24;2.80;;;2.50;;
65567;SDS011;52211;50.154;8.682;2022-09-20T17:51:54;2.73;;;2.53;;
65567;SDS011;52211;50.154;8.682;2022-09-20T17:54:23;2.47;;;2.37;;
65567;SDS011;52211;50.154;8.682;2022-09-20T17:56:51;3.00;;;2.80;;
65567;SDS011;52211;50.154;8.682;2022-09-20T17:59:24;2.50;;;2.40;;
65567;SDS011;52211;50.154;8.682;2022-09-20T18:01:53;2.83;;;2.50;;
65567;SDS011;52211;50.154;8.682;2022-09-20T18:04:24;2.60;;;2.50;;
65567;SDS011;52211;50.154;8.682;2022-09-20T18:06:56;2.77;;;2.60;;
65567;SDS011;52211;50.154;8.682;2022-09-20T18:09:26;3.67;;;2.37;;
65567;SDS011;52211;50.154;8.682;2022-09-20T18:11:55;2.40;;;2.30;;
65567;SDS011;52211;50.154;8.682;2022-09-20T18:14:23;2.60;;;2.50;;
65567;SDS011;52211;50.154;8.682;2022-09-20T18:16:57;2.70;;;2.60;;
65567;SDS011;52211;50.154;8.682;2022-09-20T18:19:28;2.67;;;2.47;;
65567;SDS011;52211;50.154;8.682;2022-09-20T18:22:01;2.40;;;2.30;;
65567;SDS011;52211;50.154;8.682;2022-09-20T18:24:30;3.07;;;2.87;;
65567;SDS011;52211;50.154;8.682;2022-09-20T18:26:59;2.70;;;2.60;;
65567;SDS011;52211;50.154;8.682;2022-09-20T18:29:29;2.43;;;2.33;;
65567;SDS011;52211;50.154;8.682;2022-09-20T18:32:02;2.80;;;2.43;;
65567;SDS011;52211;50.154;8.682;2022-09-20T18:34:33;2.80;;;2.60;;
65567;SDS011;52211;50.154;8.682;2022-09-20T18:37:05;2.60;;;2.50;;
65567;SDS011;52211;50.154;8.682;2022-09-20T18:39:39;2.70;;;2.60;;
65567;SDS011;52211;50.154;8.682;2022-09-20T18:42:07;2.77;;;2.60;;
65567;SDS011;52211;50.154;8.682;2022-09-20T18:44:36;2.73;;;2.63;;
65567;SDS011;52211;50.154;8.682;2022-09-20T18:47:08;2.77;;;2.60;;
65567;SDS011;52211;50.154;8.682;2022-09-20T18:49:36;2.77;;;2.57;;
65567;SDS011;52211;50.154;8.682;2022-09-20T18:52:05;2.80;;;2.60;;
65567;SDS011;52211;50.154;8.682;2022-09-20T18:54:36;3.07;;;2.87;;
65567;SDS011;52211;50.154;8.682;2022-09-20T18:57:07;3.10;;;2.77;;
65567;SDS011;52211;50.154;8.682;2022-09-20T18:59:36;2.63;;;2.50;;
65567;SDS011;52211;50.154;8.682;2022-09-20T19:10:51;2.70;;;2.60;;
65567;SDS011;52211;50.154;8.682;2022-09-20T19:27:20;3.23;;;2.70;;
65567;SDS011;52211;50.154;8.682;2022-09-20T19:29:53;2.70;;;2.60;;
65567;SDS011;52211;50.154;8.682;2022-09-20T19:32:21;3.70;;;2.60;;
65567;SDS011;52211;50.154;8.682;2022-09-20T19:34:54;3.63;;;2.50;;
65567;SDS011;52211;50.154;8.682;2022-09-20T19:51:56;2.77;;;2.57;;
65567;SDS011;52211;50.154;8.682;2022-09-20T19:54:25;2.30;;;2.20;;
65567;SDS011;52211;50.154;8.682;2022-09-20T19:56:54;2.87;;;2.67;;
65567;SDS011;52211;50.154;8.682;2022-09-20T19:59:26;2.70;;;2.50;;
65567;SDS011;52211;50.154;8.682;2022-09-20T20:01:59;2.60;;;2.47;;
65567;SDS011;52211;50.154;8.682;2022-09-20T20:04:26;2.63;;;2.53;;
65567;SDS011;52211;50.154;8.682;2022-09-20T20:09:50;2.37;;;2.27;;
65567;SDS011;52211;50.154;8.682;2022-09-20T20:12:34;2.50;;;2.40;;
65567;SDS011;52211;50.154;8.682;2022-09-20T20:20:58;2.40;;;2.20;;
65567;SDS011;52211;50.154;8.682;2022-09-20T20:26:32;2.50;;;2.30;;
65567;SDS011;52211;50.154;8.682;2022-09-20T20:29:00;2.40;;;2.30;;
65567;SDS011;52211;50.154;8.682;2022-09-20T20:31:26;2.40;;;2.30;;
65567;SDS011;52211;50.154;8.682;2022-09-20T20:33:56;2.63;;;2.43;;
65567;SDS011;52211;50.154;8.682;2022-09-20T20:36:25;2.50;;;2.40;;
65567;SDS011;52211;50.154;8.682;2022-09-20T20:38:52;2.80;;;2.40;;
65567;SDS011;52211;50.154;8.682;2022-09-20T20:41:21;3.20;;;3.00;;
65567;SDS011;52211;50.154;8.682;2022-09-20T20:43:52;2.80;;;2.70;;
65567;SDS011;52211;50.154;8.682;2022-09-20T20:46:25;3.07;;;2.80;;
65567;SDS011;52211;50.154;8.682;2022-09-20T20:48:52;3.20;;;3.00;;
65567;SDS011;52211;50.154;8.682;2022-09-20T20:51:23;3.00;;;2.80;;
65567;SDS011;52211;50.154;8.682;2022-09-20T20:53:52;2.73;;;2.60;;
65567;SDS011;52211;50.154;8.682;2022-09-20T20:56:21;3.23;;;2.93;;
65567;SDS011;52211;50.154;8.682;2022-09-20T20:58:54;3.20;;;2.93;;
65567;SDS011;52211;50.154;8.682;2022-09-20T21:01:28;3.00;;;2.80;;
65567;SDS011;52211;50.154;8.682;2022-09-20T21:04:05;3.70;;;3.23;;
65567;SDS011;52211;50.154;8.682;2022-09-20T21:06:35;5.03;;;2.90;;
65567;SDS011;52211;50.154;8.682;2022-09-20T21:09:07;3.40;;;3.10;;
65567;SDS011;52211;50.154;8.682;2022-09-20T21:11:39;3.30;;;3.00;;
65567;SDS011;52211;50.154;8.682;2022-09-20T21:14:10;3.90;;;3.60;;
65567;SDS011;52211;50.154;8.682;2022-09-20T21:16:38;4.23;;;3.30;;
65567;SDS011;52211;50.154;8.682;2022-09-20T21:19:09;3.67;;;3.00;;
65567;SDS011;52211;50.154;8.682;2022-09-20T21:21:41;2.90;;;2.70;;
65567;SDS011;52211;50.154;8.682;2022-09-20T21:24:13;3.30;;;2.97;;
65567;SDS011;52211;50.154;8.682;2022-09-20T21:26:42;2.67;;;2.53;;
65567;SDS011;52211;50.154;8.682;2022-09-20T21:29:13;3.07;;;2.80;;
65567;SDS011;52211;50.154;8.682;2022-09-20T21:31:44;3.40;;;3.10;;
65567;SDS011;52211;50.154;8.682;2022-09-20T21:34:16;3.10;;;2.90;;
65567;SDS011;52211;50.154;8.682;2022-09-20T21:36:45;3.20;;;2.90;;
65567;SDS011;52211;50.154;8.682;2022-09-20T21:39:11;3.20;;;2.90;;
65567;SDS011;52211;50.154;8.682;2022-09-20T21:41:41;3.40;;;3.10;;
65567;SDS011;52211;50.154;8.682;2022-09-20T21:44:13;2.93;;;2.70;;
65567;SDS011;52211;50.154;8.682;2022-09-20T21:46:42;3.40;;;3.20;;
65567;SDS011;52211;50.154;8.682;2022-09-20T21:49:13;3.33;;;3.10;;
65567;SDS011;52211;50.154;8.682;2022-09-20T21:51:40;3.77;;;3.00;;
65567;SDS011;52211;50.154;8.682;2022-09-20T21:54:10;2.80;;;2.60;;
65567;SDS011;52211;50.154;8.682;2022-09-20T21:56:39;3.37;;;3.07;;
65567;SDS011;52211;50.154;8.682;2022-09-20T21:59:06;2.87;;;2.67;;
65567;SDS011;52211;50.154;8.682;2022-09-20T22:01:37;3.77;;;2.67;;
65567;SDS011;52211;50.154;8.682;2022-09-20T22:04:09;2.80;;;2.60;;
65567;SDS011;52211;50.154;8.682;2022-09-20T22:06:40;2.90;;;2.70;;
65567;SDS011;52211;50.154;8.682;2022-09-20T22:11:38;2.60;;;2.50;;
65567;SDS011;52211;50.154;8.682;2022-09-20T22:14:13;2.67;;;2.47;;
65567;SDS011;52211;50.154;8.682;2022-09-20T22:16:45;3.00;;;2.70;;
65567;SDS011;52211;50.154;8.682;2022-09-20T22:19:14;2.73;;;2.53;;
65567;SDS011;52211;50.154;8.682;2022-09-20T22:21:44;2.53;;;2.43;;